Time;durP1;ratioP1;P1;durP2;ratioP2;P2;SDS_P1;SDS_P2;PMS_P1;PMS_P2;Temp;Humidity;BMP_temperature;BMP_pressure;BME280_temperature;BME280_humidity;BME280_pressure;Samples;Min_cycle;Max_cycle;Signal;HPM_P1;HPM_P2
2022/05/22 00:01:05;;;;;;;3.70;0.40;;;;;;;;;;5010106;28;20403;-75
2022/05/22 00:03:30;;;;;;;0.30;0.30;;;;;;;;;;5008103;28;20390;-79
2022/05/22 00:05:58;;;;;;;0.20;0.20;;;;;;;;;;5003646;28;20451;-77
2022/05/22 00:08:23;;;;;;;0.40;0.40;;;;;;;;;;5002452;28;20033;-78
2022/05/22 00:10:48;;;;;;;10.45;0.57;;;;;;;;;;5008970;28;20030;-78
2022/05/22 00:13:16;;;;;;;1.80;1.10;;;;;;;;;;5015955;28;20044;-79
2022/05/22 00:16:36;;;;;;;3.30;0.73;;;;;;;;;;5013673;28;20018;-75
2022/05/22 00:18:27;;;;;;;0.32;0.32;;;;;;;;;;5013939;28;20590;-79
2022/05/22 00:20:52;;;;;;;0.43;0.38;;;;;;;;;;5014995;28;20120;-75
2022/05/22 00:23:17;;;;;;;0.30;0.30;;;;;;;;;;5015854;28;20105;-75
2022/05/22 00:25:42;;;;;;;0.30;0.30;;;;;;;;;;5015820;28;20443;-75
2022/05/22 00:28:10;;;;;;;1.65;0.95;;;;;;;;;;5015197;28;20472;-75
2022/05/22 00:30:35;;;;;;;0.95;0.77;;;;;;;;;;5015198;28;20141;-75
2022/05/22 00:33:02;;;;;;;0.35;0.35;;;;;;;;;;4998421;28;20538;-75
2022/05/22 00:35:27;;;;;;;2.17;0.82;;;;;;;;;;5015829;28;20029;-75
2022/05/22 00:37:53;;;;;;;0.35;0.32;;;;;;;;;;5015420;28;20499;-75
2022/05/22 00:40:18;;;;;;;0.85;0.63;;;;;;;;;;5016876;28;20104;-75
2022/05/22 00:42:46;;;;;;;2.63;1.42;;;;;;;;;;4996415;28;20498;-75
2022/05/22 00:45:19;;;;;;;1.95;1.10;;;;;;;;;;5015424;28;20049;-75
2022/05/22 00:47:44;;;;;;;0.35;0.30;;;;;;;;;;5014668;28;20025;-75
2022/05/22 00:50:09;;;;;;;0.30;0.30;;;;;;;;;;5014403;28;20041;-75
2022/05/22 00:52:40;;;;;;;0.22;0.22;;;;;;;;;;5014431;28;20495;-75
2022/05/22 00:55:10;;;;;;;0.50;0.40;;;;;;;;;;4997918;28;20395;-75
2022/05/22 00:57:49;;;;;;;1.02;0.95;;;;;;;;;;5014267;28;20113;-75
2022/05/22 01:00:18;;;;;;;0.45;0.43;;;;;;;;;;5013102;28;20164;-75
2022/05/22 01:05:28;;;;;;;1.10;0.80;;;;;;;;;;5014606;28;20130;-76
2022/05/22 01:07:56;;;;;;;0.43;0.43;;;;;;;;;;5015103;28;20053;-75
2022/05/22 01:10:24;;;;;;;1.23;1.13;;;;;;;;;;5013642;28;20359;-75
2022/05/22 01:12:49;;;;;;;0.35;0.32;;;;;;;;;;5014127;28;20041;-76
2022/05/22 01:15:15;;;;;;;1.20;0.90;;;;;;;;;;5014303;28;20034;-75
2022/05/22 01:17:45;;;;;;;0.98;0.82;;;;;;;;;;5015051;28;20029;-76
2022/05/22 01:20:16;;;;;;;0.80;0.80;;;;;;;;;;5013461;28;20099;-75
2022/05/22 01:22:42;;;;;;;0.52;0.45;;;;;;;;;;5013349;28;20447;-74
2022/05/22 01:25:10;;;;;;;1.00;0.30;;;;;;;;;;5014528;28;20034;-75
2022/05/22 01:27:36;;;;;;;1.48;0.98;;;;;;;;;;5014718;28;20045;-75
2022/05/22 01:30:16;;;;;;;0.75;0.65;;;;;;;;;;5013881;28;20038;-75
2022/05/22 01:32:43;;;;;;;1.25;1.15;;;;;;;;;;5013924;28;20414;-75
2022/05/22 01:35:11;;;;;;;0.57;0.57;;;;;;;;;;5012794;28;20049;-74
2022/05/22 01:37:36;;;;;;;5.18;2.15;;;;;;;;;;5014585;28;20021;-74
2022/05/22 01:40:03;;;;;;;0.38;0.38;;;;;;;;;;5013114;28;20359;-74
2022/05/22 01:42:29;;;;;;;0.35;0.35;;;;;;;;;;5013678;28;20033;-74
2022/05/22 01:44:56;;;;;;;0.47;0.47;;;;;;;;;;5014514;28;20506;-75
2022/05/22 01:47:22;;;;;;;2.00;1.45;;;;;;;;;;5013585;28;20033;-75
2022/05/22 01:49:49;;;;;;;1.02;0.50;;;;;;;;;;5012743;28;20038;-75
2022/05/22 01:52:15;;;;;;;0.35;0.35;;;;;;;;;;5014084;28;20525;-75
2022/05/22 01:54:40;;;;;;;1.95;1.10;;;;;;;;;;5013227;28;20022;-75
2022/05/22 01:57:08;;;;;;;0.60;0.60;;;;;;;;;;5014392;28;20075;-75
2022/05/22 01:59:35;;;;;;;1.27;1.17;;;;;;;;;;5015260;28;20025;-76
2022/05/22 02:02:03;;;;;;;0.55;0.55;;;;;;;;;;5018459;28;20037;-75
2022/05/22 02:04:28;;;;;;;0.43;0.43;;;;;;;;;;5018380;28;20060;-75
2022/05/22 02:09:42;;;;;;;1.20;1.10;;;;;;;;;;5018540;28;20041;-75
2022/05/22 02:12:10;;;;;;;1.63;0.95;;;;;;;;;;5018395;28;20348;-75
2022/05/22 02:14:35;;;;;;;1.27;0.70;;;;;;;;;;5017309;28;20030;-75
2022/05/22 02:17:00;;;;;;;1.85;0.80;;;;;;;;;;5016767;28;20030;-75
2022/05/22 02:19:26;;;;;;;0.38;0.38;;;;;;;;;;5018289;28;20088;-75
2022/05/22 02:21:51;;;;;;;0.85;0.85;;;;;;;;;;5018405;28;20340;-75
2022/05/22 02:24:19;;;;;;;0.55;0.50;;;;;;;;;;5018435;28;20022;-75
2022/05/22 02:26:44;;;;;;;0.57;0.57;;;;;;;;;;5016463;28;20038;-75
2022/05/22 02:29:12;;;;;;;0.45;0.45;;;;;;;;;;5017890;28;20375;-75
2022/05/22 02:31:39;;;;;;;0.75;0.75;;;;;;;;;;5017972;28;20026;-75
2022/05/22 02:34:05;;;;;;;0.15;0.15;;;;;;;;;;5017830;28;20112;-76
2022/05/22 02:36:32;;;;;;;0.45;0.45;;;;;;;;;;5017381;28;20096;-75
2022/05/22 02:38:57;;;;;;;0.40;0.40;;;;;;;;;;5017981;28;20340;-75
2022/05/22 02:41:27;;;;;;;0.25;0.25;;;;;;;;;;5001647;28;20069;-75
2022/05/22 02:43:53;;;;;;;4.63;1.13;;;;;;;;;;4998174;28;20036;-76
2022/05/22 02:46:19;;;;;;;0.75;0.52;;;;;;;;;;5006629;28;20026;-75
2022/05/22 02:48:44;;;;;;;0.55;0.52;;;;;;;;;;5016578;28;20053;-75
2022/05/22 02:51:14;;;;;;;0.82;0.75;;;;;;;;;;5016935;28;20080;-75
2022/05/22 02:53:42;;;;;;;0.38;0.38;;;;;;;;;;5017468;28;20076;-75
2022/05/22 02:56:13;;;;;;;3.92;1.02;;;;;;;;;;5016718;28;20455;-75
2022/05/22 02:58:39;;;;;;;0.63;0.63;;;;;;;;;;5015912;28;20025;-75
2022/05/22 03:01:06;;;;;;;0.43;0.40;;;;;;;;;;5017519;28;20052;-75
2022/05/22 03:03:34;;;;;;;1.08;1.05;;;;;;;;;;5017366;28;20025;-75
2022/05/22 03:08:48;;;;;;;0.57;0.57;;;;;;;;;;5016396;28;20421;-75
2022/05/22 03:11:14;;;;;;;1.67;0.65;;;;;;;;;;5016256;28;20329;-75
2022/05/22 03:13:39;;;;;;;0.82;0.82;;;;;;;;;;5017126;28;20109;-76
2022/05/22 03:16:05;;;;;;;0.98;0.40;;;;;;;;;;5015844;28;20061;-75
2022/05/22 03:18:30;;;;;;;0.60;0.60;;;;;;;;;;5016482;28;20026;-75
2022/05/22 03:20:58;;;;;;;1.40;0.98;;;;;;;;;;5016518;28;20032;-75
2022/05/22 03:23:23;;;;;;;2.72;1.17;;;;;;;;;;5015999;28;20034;-75
2022/05/22 03:25:49;;;;;;;0.77;0.77;;;;;;;;;;5016352;28;20021;-75
2022/05/22 03:28:15;;;;;;;2.97;1.25;;;;;;;;;;5016016;28;20045;-75
2022/05/22 03:30:41;;;;;;;2.47;1.17;;;;;;;;;;5016695;28;20030;-76
2022/05/22 03:33:09;;;;;;;0.77;0.77;;;;;;;;;;5015854;28;20025;-75
2022/05/22 03:35:36;;;;;;;0.55;0.55;;;;;;;;;;4998123;28;20037;-75
2022/05/22 03:38:05;;;;;;;2.05;0.90;;;;;;;;;;5016487;28;20068;-75
2022/05/22 03:40:30;;;;;;;0.95;0.77;;;;;;;;;;5015736;28;20080;-75
2022/05/22 03:42:56;;;;;;;2.22;1.38;;;;;;;;;;5015289;28;20025;-75
2022/05/22 03:45:21;;;;;;;1.48;0.75;;;;;;;;;;5014887;28;20451;-76
2022/05/22 03:47:46;;;;;;;0.28;0.28;;;;;;;;;;5016433;28;20026;-76
2022/05/22 03:50:15;;;;;;;0.80;0.80;;;;;;;;;;5015519;28;20037;-76
2022/05/22 03:52:46;;;;;;;0.77;0.40;;;;;;;;;;5015130;28;20040;-75
2022/05/22 03:55:14;;;;;;;0.93;0.93;;;;;;;;;;5015793;28;20022;-75
2022/05/22 03:57:45;;;;;;;0.65;0.45;;;;;;;;;;5016207;28;20021;-75
2022/05/22 04:00:12;;;;;;;0.82;0.70;;;;;;;;;;5015593;28;20087;-75
2022/05/22 04:02:42;;;;;;;1.48;0.63;;;;;;;;;;5015442;28;20026;-76
2022/05/22 04:05:10;;;;;;;5.55;1.23;;;;;;;;;;4995532;28;20364;-76
2022/05/22 04:07:40;;;;;;;1.52;1.42;;;;;;;;;;5005411;28;20045;-77
2022/05/22 04:10:09;;;;;;;1.60;0.82;;;;;;;;;;5015186;28;20034;-76
2022/05/22 04:12:37;;;;;;;0.73;0.73;;;;;;;;;;5015171;28;20026;-76
2022/05/22 04:15:04;;;;;;;0.43;0.43;;;;;;;;;;5015424;28;20041;-76
2022/05/22 04:17:29;;;;;;;1.05;0.90;;;;;;;;;;5015873;28;20041;-76
2022/05/22 04:19:55;;;;;;;1.08;1.00;;;;;;;;;;5015873;28;20026;-76
2022/05/22 04:22:20;;;;;;;0.57;0.55;;;;;;;;;;5014504;28;20380;-76
2022/05/22 04:27:32;;;;;;;1.65;1.23;;;;;;;;;;5015736;28;20100;-76
2022/05/22 04:29:59;;;;;;;0.85;0.57;;;;;;;;;;5015162;28;20037;-76
2022/05/22 04:32:25;;;;;;;2.15;1.48;;;;;;;;;;5015709;28;20026;-76
2022/05/22 04:34:50;;;;;;;1.25;1.17;;;;;;;;;;5014689;28;20029;-76
2022/05/22 04:37:18;;;;;;;1.95;1.38;;;;;;;;;;5013500;28;20022;-77
2022/05/22 04:39:46;;;;;;;1.25;1.15;;;;;;;;;;5015641;28;20033;-76
2022/05/22 04:42:11;;;;;;;0.50;0.30;;;;;;;;;;5014509;28;20359;-77
2022/05/22 04:44:36;;;;;;;0.93;0.80;;;;;;;;;;5015585;28;20029;-77
2022/05/22 04:47:02;;;;;;;1.33;1.23;;;;;;;;;;5015151;28;20034;-77
2022/05/22 04:49:29;;;;;;;1.25;1.15;;;;;;;;;;5014321;28;20096;-76
2022/05/22 04:51:58;;;;;;;0.52;0.52;;;;;;;;;;5015014;28;20435;-77
2022/05/22 04:54:26;;;;;;;2.50;1.38;;;;;;;;;;5015275;28;20455;-76
2022/05/22 04:56:53;;;;;;;1.02;0.93;;;;;;;;;;5014412;28;20102;-77
2022/05/22 04:59:19;;;;;;;0.85;0.85;;;;;;;;;;5013156;28;20029;-76
2022/05/22 05:01:44;;;;;;;0.43;0.43;;;;;;;;;;5014102;28;20076;-76
2022/05/22 05:04:13;;;;;;;0.70;0.70;;;;;;;;;;5015125;28;20453;-76
2022/05/22 05:06:38;;;;;;;0.98;0.70;;;;;;;;;;5014171;28;20446;-76
2022/05/22 05:09:04;;;;;;;0.50;0.47;;;;;;;;;;5014223;28;20025;-75
2022/05/22 05:11:29;;;;;;;1.10;0.85;;;;;;;;;;5013643;28;20585;-75
2022/05/22 05:13:54;;;;;;;2.45;1.65;;;;;;;;;;5014969;28;20030;-75
2022/05/22 05:16:21;;;;;;;1.40;1.08;;;;;;;;;;5014844;28;20041;-76
2022/05/22 05:18:46;;;;;;;0.80;0.80;;;;;;;;;;5013335;28;20455;-76
2022/05/22 05:21:13;;;;;;;2.95;1.63;;;;;;;;;;5014341;28;20057;-76
2022/05/22 05:23:39;;;;;;;2.60;1.98;;;;;;;;;;4997241;28;20367;-76
2022/05/22 05:26:05;;;;;;;0.32;0.32;;;;;;;;;;5015126;28;20109;-76
2022/05/22 05:28:31;;;;;;;0.85;0.82;;;;;;;;;;5013969;28;20078;-76
2022/05/22 05:30:56;;;;;;;1.42;1.33;;;;;;;;;;5014596;28;20032;-75
2022/05/22 05:33:22;;;;;;;1.35;1.25;;;;;;;;;;5012777;28;20021;-77
2022/05/22 05:35:49;;;;;;;6.72;1.20;;;;;;;;;;5014487;28;20100;-75
2022/05/22 05:38:17;;;;;;;0.50;0.45;;;;;;;;;;5013618;28;20026;-76
2022/05/22 05:40:43;;;;;;;0.52;0.52;;;;;;;;;;5013678;28;20025;-76
2022/05/22 05:43:08;;;;;;;1.77;1.65;;;;;;;;;;5014450;28;20084;-76
2022/05/22 05:45:34;;;;;;;0.40;0.40;;;;;;;;;;5014537;28;20106;-76
2022/05/22 05:48:00;;;;;;;3.63;0.77;;;;;;;;;;5013038;28;20045;-76
2022/05/22 05:50:29;;;;;;;0.52;0.52;;;;;;;;;;5014408;28;20038;-75
2022/05/22 05:52:56;;;;;;;1.25;0.93;;;;;;;;;;5012798;28;20037;-76
2022/05/22 05:55:22;;;;;;;1.00;0.63;;;;;;;;;;5014504;28;20030;-76
2022/05/22 05:57:50;;;;;;;1.50;1.02;;;;;;;;;;5014358;28;20104;-76
2022/05/22 06:00:17;;;;;;;1.00;1.00;;;;;;;;;;5014334;28;20511;-76
2022/05/22 06:02:43;;;;;;;26.80;0.95;;;;;;;;;;5013966;28;20045;-76
2022/05/22 06:05:12;;;;;;;1.15;1.05;;;;;;;;;;5013476;28;20030;-76
2022/05/22 06:07:38;;;;;;;1.27;1.13;;;;;;;;;;5011574;28;20037;-76
2022/05/22 06:10:06;;;;;;;0.30;0.30;;;;;;;;;;5013973;28;20034;-76
2022/05/22 06:12:34;;;;;;;2.10;0.90;;;;;;;;;;5014152;28;20462;-76
2022/05/22 06:14:59;;;;;;;0.73;0.70;;;;;;;;;;5013228;28;20135;-76
2022/05/22 06:17:31;;;;;;;1.50;0.93;;;;;;;;;;5013063;28;20126;-76
2022/05/22 06:19:57;;;;;;;0.85;0.77;;;;;;;;;;5014422;28;20022;-76
2022/05/22 06:22:27;;;;;;;2.83;1.40;;;;;;;;;;5014484;28;20113;-77
2022/05/22 06:24:53;;;;;;;1.67;0.90;;;;;;;;;;5012642;28;20069;-77
2022/05/22 06:27:21;;;;;;;1.38;1.27;;;;;;;;;;5010034;28;20108;-77
2022/05/22 06:29:47;;;;;;;0.60;0.60;;;;;;;;;;5014096;28;20104;-77
2022/05/22 06:32:13;;;;;;;0.20;0.20;;;;;;;;;;5013160;28;20029;-76
2022/05/22 06:34:41;;;;;;;1.40;1.08;;;;;;;;;;5011780;28;20108;-76
2022/05/22 06:37:11;;;;;;;0.20;0.20;;;;;;;;;;5012698;28;20444;-77
2022/05/22 06:39:49;;;;;;;4.18;1.25;;;;;;;;;;5013942;28;20022;-77
2022/05/22 06:42:16;;;;;;;2.08;1.13;;;;;;;;;;5013246;28;20050;-76
2022/05/22 06:44:44;;;;;;;2.28;1.45;;;;;;;;;;5014416;28;20087;-76
2022/05/22 06:47:10;;;;;;;0.93;0.85;;;;;;;;;;5017545;28;20418;-75
2022/05/22 06:49:35;;;;;;;0.85;0.85;;;;;;;;;;5015757;28;20117;-76
2022/05/22 06:52:01;;;;;;;3.05;1.10;;;;;;;;;;5017556;28;20435;-76
2022/05/22 06:54:30;;;;;;;1.10;1.00;;;;;;;;;;5016040;28;20034;-76
2022/05/22 06:56:59;;;;;;;0.52;0.52;;;;;;;;;;5017465;28;20030;-76
2022/05/22 06:59:24;;;;;;;0.30;0.30;;;;;;;;;;5016684;28;20026;-75
2022/05/22 07:01:50;;;;;;;1.15;0.47;;;;;;;;;;5017308;28;20026;-76
2022/05/22 07:04:15;;;;;;;5.07;2.00;;;;;;;;;;5016390;28;20042;-76
2022/05/22 07:06:41;;;;;;;0.55;0.47;;;;;;;;;;5017230;28;20029;-76
2022/05/22 07:09:06;;;;;;;0.30;0.30;;;;;;;;;;5016475;28;20030;-75
2022/05/22 07:11:40;;;;;;;1.17;0.80;;;;;;;;;;5016271;28;20022;-77
2022/05/22 07:14:09;;;;;;;2.28;0.98;;;;;;;;;;5016553;28;20033;-77
2022/05/22 07:16:38;;;;;;;0.50;0.32;;;;;;;;;;5016476;28;20040;-76
2022/05/22 07:19:04;;;;;;;3.97;0.95;;;;;;;;;;5016068;28;20570;-77
2022/05/22 07:21:30;;;;;;;0.82;0.82;;;;;;;;;;5016744;28;20058;-77
2022/05/22 07:23:55;;;;;;;1.17;0.73;;;;;;;;;;5016406;28;20094;-77
2022/05/22 07:26:25;;;;;;;2.00;1.90;;;;;;;;;;5016238;28;20036;-76
2022/05/22 07:28:50;;;;;;;1.27;0.57;;;;;;;;;;5016905;28;20096;-77
2022/05/22 07:31:23;;;;;;;1.13;0.57;;;;;;;;;;5000218;28;20033;-77
2022/05/22 07:33:52;;;;;;;0.43;0.20;;;;;;;;;;5012602;28;20038;-77
2022/05/22 07:36:18;;;;;;;0.95;0.75;;;;;;;;;;5009773;28;20475;-77
2022/05/22 07:38:44;;;;;;;0.43;0.43;;;;;;;;;;5016110;28;20026;-77
2022/05/22 07:41:11;;;;;;;2.63;0.90;;;;;;;;;;5016017;28;20037;-77
2022/05/22 07:43:40;;;;;;;0.77;0.55;;;;;;;;;;5015759;28;20120;-77
2022/05/22 07:46:06;;;;;;;0.60;0.52;;;;;;;;;;5015789;28;20030;-77
2022/05/22 07:48:32;;;;;;;0.70;0.70;;;;;;;;;;5015576;28;20029;-76
2022/05/22 07:50:59;;;;;;;0.35;0.35;;;;;;;;;;5014436;28;20030;-77
2022/05/22 07:53:25;;;;;;;0.57;0.57;;;;;;;;;;5015078;28;20026;-76
2022/05/22 07:55:51;;;;;;;0.55;0.30;;;;;;;;;;4999033;28;20021;-76
2022/05/22 07:58:19;;;;;;;1.08;0.95;;;;;;;;;;5015321;28;20084;-76
2022/05/22 08:00:45;;;;;;;1.05;0.95;;;;;;;;;;5015438;28;20029;-77
2022/05/22 08:03:14;;;;;;;4.22;0.35;;;;;;;;;;5015507;28;20033;-76
2022/05/22 08:05:41;;;;;;;0.60;0.60;;;;;;;;;;5013284;28;20439;-76
2022/05/22 08:08:09;;;;;;;0.77;0.77;;;;;;;;;;5014574;28;20091;-77
2022/05/22 08:10:36;;;;;;;1.30;0.70;;;;;;;;;;5015186;28;20018;-76
2022/05/22 08:13:06;;;;;;;0.20;0.15;;;;;;;;;;5015241;28;20037;-76
2022/05/22 08:15:33;;;;;;;4.22;0.98;;;;;;;;;;5016134;28;20044;-77
2022/05/22 08:17:59;;;;;;;0.30;0.25;;;;;;;;;;5014129;28;20029;-77
2022/05/22 08:20:26;;;;;;;0.57;0.40;;;;;;;;;;5014175;28;20040;-77
2022/05/22 08:22:57;;;;;;;0.13;0.13;;;;;;;;;;5015965;28;20104;-77
2022/05/22 08:25:24;;;;;;;3.60;1.23;;;;;;;;;;5016020;28;20025;-77
2022/05/22 08:27:51;;;;;;;3.60;0.75;;;;;;;;;;5013773;28;20156;-76
2022/05/22 08:30:17;;;;;;;0.20;0.20;;;;;;;;;;5015313;28;20030;-77
2022/05/22 08:32:47;;;;;;;0.60;0.30;;;;;;;;;;5013167;28;20368;-76
2022/05/22 08:35:20;;;;;;;2.92;0.45;;;;;;;;;;5013601;28;20439;-77
2022/05/22 08:37:45;;;;;;;0.20;0.20;;;;;;;;;;5015694;28;20034;-77
2022/05/22 08:40:13;;;;;;;1.05;0.30;;;;;;;;;;5015510;28;20096;-76
2022/05/22 08:42:41;;;;;;;0.40;0.40;;;;;;;;;;5015612;28;20040;-77
2022/05/22 08:45:27;;;;;;;1.13;0.30;;;;;;;;;;5013898;28;20049;-77
2022/05/22 08:48:03;;;;;;;0.20;0.20;;;;;;;;;;5027304;28;20116;-76
2022/05/22 08:50:29;;;;;;;1.13;0.60;;;;;;;;;;5014056;28;20088;-77
2022/05/22 08:52:58;;;;;;;2.28;0.65;;;;;;;;;;5013935;28;20117;-77
2022/05/22 09:01:15;;;;;;;3.78;0.88;;;;;;;;;;4998511;28;20044;-78
2022/05/22 09:04:23;;;;;;;4.45;0.60;;;;;;;;;;5012849;28;20048;-79
2022/05/22 09:07:25;;;;;;;1.13;0.52;;;;;;;;;;5012911;28;20037;-79
2022/05/22 09:10:23;;;;;;;0.60;0.60;;;;;;;;;;5015242;28;20447;-79
2022/05/22 09:13:07;;;;;;;0.65;0.65;;;;;;;;;;5002793;28;20030;-79
2022/05/22 09:15:45;;;;;;;0.73;0.52;;;;;;;;;;5010574;28;20026;-79
2022/05/22 09:18:17;;;;;;;1.38;0.73;;;;;;;;;;5011605;28;20566;-79
2022/05/22 09:20:45;;;;;;;1.98;1.60;;;;;;;;;;5014092;28;20026;-79
2022/05/22 09:23:32;;;;;;;5.90;0.30;;;;;;;;;;5013098;28;20112;-79
2022/05/22 09:26:07;;;;;;;1.33;0.95;;;;;;;;;;5014360;28;20065;-77
2022/05/22 09:28:35;;;;;;;0.93;0.65;;;;;;;;;;5020353;28;20026;-79
2022/05/22 09:31:24;;;;;;;2.30;1.02;;;;;;;;;;5014055;28;20022;-79
2022/05/22 09:33:59;;;;;;;2.15;0.50;;;;;;;;;;5012537;28;20028;-80
2022/05/22 09:36:30;;;;;;;0.30;0.30;;;;;;;;;;5010617;28;20078;-80
2022/05/22 09:39:10;;;;;;;3.00;1.10;;;;;;;;;;5016860;28;20421;-78
2022/05/22 09:41:44;;;;;;;3.63;0.85;;;;;;;;;;5003460;28;20104;-79
2022/05/22 09:44:21;;;;;;;0.98;0.77;;;;;;;;;;5010689;28;20036;-79
2022/05/22 09:46:46;;;;;;;6.55;1.50;;;;;;;;;;5005694;28;20460;-78
2022/05/22 09:49:19;;;;;;;4.33;1.00;;;;;;;;;;4999018;28;20041;-79
2022/05/22 09:51:50;;;;;;;0.63;0.55;;;;;;;;;;5006058;28;20874;-77
2022/05/22 09:54:24;;;;;;;0.30;0.30;;;;;;;;;;5007049;28;20116;-79
2022/05/22 09:57:17;;;;;;;1.25;1.05;;;;;;;;;;5007400;28;20456;-78
2022/05/22 10:00:08;;;;;;;4.38;1.25;;;;;;;;;;4997467;28;20041;-80
2022/05/22 10:02:58;;;;;;;0.80;0.68;;;;;;;;;;5017927;28;20513;-80
2022/05/22 10:05:26;;;;;;;1.00;0.55;;;;;;;;;;5013670;28;20057;-77
2022/05/22 10:08:01;;;;;;;0.57;0.35;;;;;;;;;;5009584;28;20106;-78
2022/05/22 10:10:53;;;;;;;0.28;0.20;;;;;;;;;;4999783;28;20419;-78
2022/05/22 10:13:25;;;;;;;0.30;0.30;;;;;;;;;;5000071;28;20379;-77
2022/05/22 10:15:54;;;;;;;1.65;1.10;;;;;;;;;;5010364;28;20038;-77
2022/05/22 10:18:24;;;;;;;5.78;1.45;;;;;;;;;;5012749;28;20025;-80
2022/05/22 10:21:00;;;;;;;3.17;1.05;;;;;;;;;;5015062;28;20038;-80
2022/05/22 10:23:46;;;;;;;0.40;0.40;;;;;;;;;;5013881;28;20034;-80
2022/05/22 10:26:20;;;;;;;0.50;0.38;;;;;;;;;;5013281;28;20030;-80
2022/05/22 10:28:51;;;;;;;1.75;0.77;;;;;;;;;;5016863;28;20045;-78
2022/05/22 10:31:21;;;;;;;2.30;1.20;;;;;;;;;;5014363;28;20021;-79
2022/05/22 10:33:56;;;;;;;1.10;0.73;;;;;;;;;;5017107;28;20025;-81
2022/05/22 10:36:25;;;;;;;0.40;0.35;;;;;;;;;;5000773;28;20089;-80
2022/05/22 10:38:58;;;;;;;3.22;0.90;;;;;;;;;;5018271;28;20041;-81
2022/05/22 10:44:15;;;;;;;0.63;0.63;;;;;;;;;;5019688;28;20104;-83
2022/05/22 10:46:45;;;;;;;0.93;0.52;;;;;;;;;;5006721;28;20033;-85
2022/05/22 10:49:10;;;;;;;1.25;0.70;;;;;;;;;;5014983;28;20040;-85
2022/05/22 10:51:41;;;;;;;0.60;0.60;;;;;;;;;;5018088;28;20112;-84
2022/05/22 10:54:06;;;;;;;0.70;0.70;;;;;;;;;;5017618;28;20390;-86
2022/05/22 10:56:42;;;;;;;1.65;0.68;;;;;;;;;;5000380;28;20040;-88
2022/05/22 10:59:19;;;;;;;1.33;0.73;;;;;;;;;;5012657;28;20084;-86
2022/05/22 11:01:57;;;;;;;0.95;0.73;;;;;;;;;;5018946;28;20036;-86
2022/05/22 11:04:43;;;;;;;0.60;0.50;;;;;;;;;;5019272;28;20044;-90
2022/05/22 11:07:12;;;;;;;1.95;0.52;;;;;;;;;;4997599;28;20415;-86
2022/05/22 11:09:45;;;;;;;4.15;1.40;;;;;;;;;;4999740;28;20038;-81
2022/05/22 11:12:13;;;;;;;3.60;0.88;;;;;;;;;;5011960;28;20029;-87
2022/05/22 11:14:39;;;;;;;0.77;0.45;;;;;;;;;;5012063;28;20466;-83
2022/05/22 11:17:20;;;;;;;1.80;1.30;;;;;;;;;;5015239;28;20029;-79
2022/05/22 11:19:48;;;;;;;2.00;1.00;;;;;;;;;;5020244;28;20100;-80
2022/05/22 11:22:27;;;;;;;2.95;0.95;;;;;;;;;;5025060;28;20038;-76
2022/05/22 11:25:31;;;;;;;1.08;0.88;;;;;;;;;;5007129;28;20037;-80
2022/05/22 11:28:20;;;;;;;1.58;1.25;;;;;;;;;;5000643;28;20045;-81
2022/05/22 11:31:16;;;;;;;0.63;0.63;;;;;;;;;;5011518;28;20037;-80
2022/05/22 11:34:28;;;;;;;0.88;0.77;;;;;;;;;;5013684;28;20041;-78
2022/05/22 11:37:05;;;;;;;1.35;1.02;;;;;;;;;;5013232;28;20419;-79
2022/05/22 11:39:46;;;;;;;2.60;1.52;;;;;;;;;;5007397;28;20128;-77
2022/05/22 11:42:31;;;;;;;0.50;0.50;;;;;;;;;;5012136;28;20026;-78
2022/05/22 11:45:21;;;;;;;2.33;0.88;;;;;;;;;;5008229;28;20018;-77
2022/05/22 11:47:46;;;;;;;2.53;1.17;;;;;;;;;;5016017;28;20034;-77
2022/05/22 11:50:30;;;;;;;0.30;0.30;;;;;;;;;;5001965;28;20038;-77
2022/05/22 11:53:25;;;;;;;0.60;0.60;;;;;;;;;;5014568;28;20479;-78
2022/05/22 11:56:06;;;;;;;1.27;0.82;;;;;;;;;;5003681;28;20041;-76
2022/05/22 11:58:40;;;;;;;1.27;0.98;;;;;;;;;;5002893;28;20030;-77
2022/05/22 12:01:47;;;;;;;1.60;0.93;;;;;;;;;;5010536;28;20032;-79
2022/05/22 12:04:37;;;;;;;0.90;0.90;;;;;;;;;;5009557;28;20479;-78
2022/05/22 12:07:08;;;;;;;1.75;0.93;;;;;;;;;;5005293;28;20029;-77
2022/05/22 12:09:55;;;;;;;0.70;0.63;;;;;;;;;;5012154;28;20037;-78
2022/05/22 12:12:45;;;;;;;0.73;0.73;;;;;;;;;;5012752;28;20030;-79
2022/05/22 12:15:35;;;;;;;2.75;1.27;;;;;;;;;;5012599;28;20101;-78
2022/05/22 12:18:19;;;;;;;1.02;0.75;;;;;;;;;;5006132;28;20440;-78
2022/05/22 12:21:05;;;;;;;2.67;1.50;;;;;;;;;;5001702;28;20019;-80
2022/05/22 12:23:42;;;;;;;1.15;0.70;;;;;;;;;;5004355;28;20104;-79
2022/05/22 12:26:08;;;;;;;0.93;0.82;;;;;;;;;;5003798;28;20097;-78
2022/05/22 12:29:07;;;;;;;1.15;0.85;;;;;;;;;;5004519;28;20447;-80
2022/05/22 12:31:56;;;;;;;0.57;0.57;;;;;;;;;;5003998;28;20018;-79
2022/05/22 12:34:44;;;;;;;0.60;0.45;;;;;;;;;;4968070;28;20041;-79
2022/05/22 12:37:23;;;;;;;1.10;0.50;;;;;;;;;;5005821;28;20030;-80
2022/05/22 12:40:19;;;;;;;1.42;0.70;;;;;;;;;;4985597;28;20061;-79
2022/05/22 12:42:54;;;;;;;0.82;0.75;;;;;;;;;;4999943;28;20046;-77
2022/05/22 12:45:21;;;;;;;0.63;0.63;;;;;;;;;;5008204;28;20081;-75
2022/05/22 12:47:52;;;;;;;1.25;0.75;;;;;;;;;;4991453;28;20076;-75
2022/05/22 12:50:43;;;;;;;1.50;0.93;;;;;;;;;;5002449;28;20091;-75
2022/05/22 12:53:24;;;;;;;1.33;0.77;;;;;;;;;;5002065;28;20034;-75
2022/05/22 12:55:50;;;;;;;2.78;0.50;;;;;;;;;;5014989;28;20046;-75
2022/05/22 12:58:39;;;;;;;0.40;0.40;;;;;;;;;;5015210;28;20108;-74
2022/05/22 13:01:23;;;;;;;1.02;0.68;;;;;;;;;;5014654;28;20022;-75
2022/05/22 13:03:52;;;;;;;1.40;0.77;;;;;;;;;;4997107;28;20097;-74
2022/05/22 13:06:22;;;;;;;0.32;0.32;;;;;;;;;;5014284;28;20029;-75
2022/05/22 13:08:59;;;;;;;5.25;1.70;;;;;;;;;;4999961;28;20310;-76
2022/05/22 13:11:41;;;;;;;0.52;0.43;;;;;;;;;;4994612;28;20062;-76
2022/05/22 13:14:19;;;;;;;2.67;0.45;;;;;;;;;;5029324;28;20112;-76
2022/05/22 13:16:51;;;;;;;2.20;0.95;;;;;;;;;;5028757;28;20032;-75
2022/05/22 13:19:26;;;;;;;0.50;0.50;;;;;;;;;;5014557;28;20040;-75
2022/05/22 13:21:52;;;;;;;0.68;0.65;;;;;;;;;;5013211;28;20057;-75
2022/05/22 13:24:29;;;;;;;1.95;1.20;;;;;;;;;;5027143;28;20145;-76
2022/05/22 13:27:06;;;;;;;1.85;0.35;;;;;;;;;;5034397;28;20032;-75
2022/05/22 13:29:59;;;;;;;1.10;0.73;;;;;;;;;;5033416;28;20049;-76
2022/05/22 13:32:32;;;;;;;0.52;0.52;;;;;;;;;;5028245;28;20029;-76
2022/05/22 13:35:00;;;;;;;0.70;0.50;;;;;;;;;;5013378;28;20058;-75
2022/05/22 13:37:29;;;;;;;1.55;0.60;;;;;;;;;;5017393;28;20021;-75
2022/05/22 13:40:07;;;;;;;1.55;0.95;;;;;;;;;;5033471;28;20414;-76
2022/05/22 13:42:36;;;;;;;5.10;1.90;;;;;;;;;;5033176;28;20025;-75
2022/05/22 13:45:26;;;;;;;1.17;1.10;;;;;;;;;;5028411;28;20025;-76
2022/05/22 13:48:23;;;;;;;2.70;1.25;;;;;;;;;;5035036;28;20040;-75
2022/05/22 13:54:05;;;;;;;1.15;1.00;;;;;;;;;;5014311;28;20119;-76
2022/05/22 13:56:43;;;;;;;0.82;0.75;;;;;;;;;;5025120;28;20108;-76
2022/05/22 13:59:25;;;;;;;1.70;0.88;;;;;;;;;;5033087;28;20127;-75
2022/05/22 14:01:53;;;;;;;0.60;0.60;;;;;;;;;;5033301;28;20026;-76
2022/05/22 14:04:19;;;;;;;1.35;0.52;;;;;;;;;;5033167;28;20033;-76
2022/05/22 14:06:48;;;;;;;1.25;0.90;;;;;;;;;;5033300;28;20029;-75
2022/05/22 14:09:27;;;;;;;3.33;0.70;;;;;;;;;;5030469;28;20098;-75
2022/05/22 14:11:54;;;;;;;5.97;0.70;;;;;;;;;;4996636;28;20033;-75
2022/05/22 14:14:20;;;;;;;6.72;1.02;;;;;;;;;;5014454;28;20449;-76
2022/05/22 14:16:56;;;;;;;1.30;0.98;;;;;;;;;;5012703;28;20438;-75
2022/05/22 14:19:30;;;;;;;1.33;1.23;;;;;;;;;;4995683;28;20030;-76
2022/05/22 14:22:20;;;;;;;1.40;0.95;;;;;;;;;;4996576;28;20462;-77
2022/05/22 14:24:51;;;;;;;1.00;0.77;;;;;;;;;;4995209;28;20527;-75
2022/05/22 14:27:49;;;;;;;2.07;1.27;;;;;;;;;;5013048;28;20052;-77
2022/05/22 14:30:14;;;;;;;1.65;1.10;;;;;;;;;;5014107;28;20033;-77
2022/05/22 14:32:41;;;;;;;0.38;0.38;;;;;;;;;;5014160;28;20026;-76
2022/05/22 14:35:16;;;;;;;1.10;0.95;;;;;;;;;;5014349;28;20033;-77
2022/05/22 14:37:45;;;;;;;1.60;1.05;;;;;;;;;;5014131;28;20109;-76
2022/05/22 14:40:24;;;;;;;0.80;0.43;;;;;;;;;;5012403;28;20097;-76
2022/05/22 14:42:54;;;;;;;2.63;1.13;;;;;;;;;;5014130;28;20059;-76
2022/05/22 14:45:24;;;;;;;2.35;1.08;;;;;;;;;;5013176;28;20026;-77
2022/05/22 14:47:51;;;;;;;2.05;0.60;;;;;;;;;;5014001;28;20087;-76
2022/05/22 14:50:18;;;;;;;0.70;0.28;;;;;;;;;;5014226;28;20072;-76
2022/05/22 14:52:50;;;;;;;0.95;0.88;;;;;;;;;;5013982;28;20040;-76
2022/05/22 14:55:28;;;;;;;0.30;0.30;;;;;;;;;;5012603;28;20052;-76
2022/05/22 14:57:59;;;;;;;1.00;0.55;;;;;;;;;;5013999;28;20026;-76
2022/05/22 15:00:37;;;;;;;2.40;1.40;;;;;;;;;;5013405;28;20018;-76
2022/05/22 15:03:28;;;;;;;1.75;1.05;;;;;;;;;;5013889;28;20058;-76
2022/05/22 15:05:57;;;;;;;4.97;0.95;;;;;;;;;;5014055;28;20038;-76
2022/05/22 15:08:28;;;;;;;1.40;0.93;;;;;;;;;;5017276;28;20058;-76
2022/05/22 15:10:54;;;;;;;1.02;0.68;;;;;;;;;;5016794;28;20106;-76
2022/05/22 15:13:31;;;;;;;1.33;0.68;;;;;;;;;;5017322;28;20026;-76
2022/05/22 15:16:17;;;;;;;0.22;0.22;;;;;;;;;;5017179;28;20033;-76
2022/05/22 15:21:27;;;;;;;2.97;1.33;;;;;;;;;;5015925;28;20415;-76
2022/05/22 15:26:48;;;;;;;1.08;0.75;;;;;;;;;;5016465;28;20470;-76
2022/05/22 15:29:26;;;;;;;1.70;1.13;;;;;;;;;;5016236;28;20017;-77
2022/05/22 15:31:53;;;;;;;0.95;0.30;;;;;;;;;;5017005;28;20026;-77
2022/05/22 15:34:27;;;;;;;1.20;0.50;;;;;;;;;;5016968;28;20406;-77
2022/05/22 15:36:52;;;;;;;1.05;0.93;;;;;;;;;;5016663;28;20029;-77